Latest Weather Observations for Young

IDN60801

Issued at 7:05 am EDT Sunday 26 October 2014 (issued every 30 minutes, with the page automatically refreshed every 10 minutes)

About weather observations | Map of weather stations | Latest weather observations for NSW | Other Formats
Station Details ID: 073138 Name: YOUNG AIRPORT Lat: -34.25 Lon: 148.25 Height: 379.6 m
Data from the previous 72 hours. | See also: Recent months at Young
Date/Time
EDT
Temp
°C
App
Temp
°C
Dew
Point
Rel
Hum
%
Delta-T
°C
Wind Press
QNH
hPa
Press
MSL
hPa
Rain
since 9 am
mm
Dir
 
Spd
km/h
Gust
km/h
Spd
kts
Gust
kts
26/07:00am 9.1 8.5 7.5 90 0.8 SW 0 0 0 0 1012.5 1012.1 0.0
26/06:30am 7.7 6.9 6.6 93 0.5 SW 0 0 0 0 1012.1 1011.7 0.0
26/06:00am 8.0 7.3 7.1 94 0.4 S 0 0 0 0 1011.7 1011.4 0.0
26/05:30am 8.2 7.5 7.0 92 0.6 CALM 0 0 0 0 1011.7 1011.4 0.0
26/05:00am 8.2 7.5 7.1 93 0.5 CALM 0 0 0 0 1011.6 1011.3 0.0
26/04:30am 8.4 7.7 6.9 90 0.7 SSW 0 0 0 0 1011.3 1010.9 0.0
26/04:00am 9.6 9.2 8.4 92 0.6 CALM 0 0 0 0 1011.0 1010.6 0.0
26/03:30am 9.4 7.8 8.2 92 0.6 SSE 6 7 3 4 1011.1 1010.7 0.0
26/03:00am 9.9 9.6 8.8 93 0.6 CALM 0 0 0 0 1011.2 1010.8 0.0
26/02:30am 9.9 9.5 8.3 90 0.8 CALM 0 6 0 3 1011.4 1011.1 0.0
26/02:00am 10.8 9.5 9.2 90 0.8 SSE 6 7 3 4 1011.6 1011.3 0.0
26/01:30am 11.3 11.3 9.7 90 0.8 CALM 0 0 0 0 1012.0 1011.6 0.0
26/01:00am 12.2 11.6 10.3 88 1.0 S 4 6 2 3 1012.3 1011.9 0.0
26/12:30am 12.7 11.6 10.6 87 1.1 SSE 7 7 4 4 1012.4 1012.0 0.0
26/12:00am 13.0 12.5 10.7 86 1.2 S 4 7 2 4 1012.5 1012.1 0.0
 
Date/Time
EDT
Temp
°C
App
Temp
°C
Dew
Point
Rel
Hum
%
Delta-T
°C
Wind Press
QNH
hPa
Press
MSL
hPa
Rain
since 9 am
mm
Dir
 
Spd
km/h
Gust
km/h
Spd
kts
Gust
kts
25/11:30pm 13.9 13.6 11.4 85 1.4 SSW 4 6 2 3 1012.6 1012.2 0.0
25/11:00pm 14.3 13.5 10.9 80 1.8 SSW 6 6 3 3 1012.8 1012.4 0.0
25/10:30pm 14.8 15.1 10.8 77 2.2 WSW 0 9 0 5 1013.1 1012.7 0.0
25/10:00pm 16.3 15.7 11.7 74 2.5 N 6 9 3 5 1013.3 1012.9 0.0
25/09:30pm 18.8 18.7 10.9 60 4.4 WNW 2 7 1 4 1013.5 1013.1 0.0
25/09:00pm 22.7 21.0 9.8 44 7.1 NNW 9 13 5 7 1013.6 1013.3 0.0
25/08:30pm 22.8 21.5 11.2 48 6.6 N 9 13 5 7 1014.1 1013.8 0.0
25/08:00pm 25.4 24.0 9.7 37 8.8 SSW 7 9 4 5 1014.2 1013.9 0.0
25/07:43pm 26.5 20.9 8.9 33 9.8 WSW 28 48 15 26 1014.9 1014.5 0.0
25/07:30pm 25.2 23.3 10.6 40 8.3 W 11 17 6 9 1013.6 1013.3 0.0
25/07:00pm 26.7 25.5 9.5 34 9.7 NNW 6 7 3 4 1011.8 1011.5 0.0
25/06:30pm 28.8 26.0 8.5 28 11.3 ENE 13 17 7 9 1011.4 1011.1 0.0
25/06:00pm 30.8 27.1 7.9 24 12.8 ENE 17 24 9 13 1011.4 1011.1 0.0
25/05:30pm 30.9 28.9 8.6 25 12.6 ENE 9 17 5 9 1012.0 1011.6 0.0
25/05:00pm 31.7 27.9 6.0 20 14.0 NNE 15 20 8 11 1012.6 1012.2 0.0
25/04:30pm 31.0 27.4 6.8 22 13.3 SE 15 20 8 11 1012.9 1012.5 0.0
25/04:00pm 30.7 27.2 7.2 23 13.0 SSE 15 20 8 11 1013.6 1013.3 0.0
25/03:30pm 31.7 29.6 6.7 21 13.7 SSE 7 13 4 7 1013.4 1013.0 0.0
25/03:00pm 31.1 28.1 7.5 23 13.1 SSW 13 20 7 11 1013.9 1013.6 0.0
25/02:30pm 31.3 28.9 7.1 22 13.4 W 9 15 5 8 1014.4 1014.1 0.0
25/02:00pm 32.1 29.9 7.7 22 13.6 NW 9 19 5 10 1014.4 1014.1 0.0
25/01:30pm 31.2 29.2 6.3 21 13.6 WSW 6 13 3 7 1014.9 1014.5 0.0
25/01:00pm 31.1 29.7 8.8 25 12.6 SSW 6 13 3 7 1015.4 1015.0 0.0
25/12:30pm 30.7 28.6 8.4 25 12.5 NW 9 15 5 8 1015.9 1015.6 0.0
25/12:00pm 30.0 28.5 8.4 26 12.1 NNW 6 15 3 8 1016.3 1016.0 0.0
25/11:30am 28.8 26.1 9.0 29 11.1 N 13 17 7 9 1016.8 1016.5 0.0
25/11:00am 29.0 27.8 10.2 31 10.8 N 7 13 4 7 1017.0 1016.7 0.0
25/10:30am 28.2 26.3 9.0 30 10.8 NNE 9 15 5 8 1017.1 1016.8 0.0
25/10:00am 25.7 23.8 9.1 35 9.2 NNE 9 11 5 6 1017.2 1016.9 0.0
25/09:30am 23.7 21.5 9.3 40 7.9 NNE 11 15 6 8 1017.5 1017.1 0.0
25/09:00am 21.7 21.2 10.8 50 6.1 ENE 4 9 2 5 1017.5 1017.1 0.0
25/08:30am 17.4 17.7 11.0 66 3.5 CALM 0 0 0 0 1017.2 1016.9 0.0
25/08:00am 14.0 13.1 10.6 80 1.8 S 6 7 3 4 1017.1 1016.8 0.0
25/07:30am 11.2 9.7 9.3 88 1.0 S 7 9 4 5 1016.8 1016.5 0.0
25/07:00am 9.5 8.1 8.7 95 0.4 SSW 6 7 3 4 1016.6 1016.3 0.0
25/06:30am 7.4 5.3 6.8 96 0.3 S 7 9 4 5 1016.4 1016.1 0.0
25/06:00am 6.7 4.4 5.8 94 0.4 S 7 11 4 6 1016.3 1016.0 0.0
25/05:30am 7.1 5.1 6.4 95 0.3 SW 6 7 3 4 1016.1 1015.8 0.0
25/05:00am 7.0 4.4 6.3 95 0.3 S 9 9 5 5 1015.9 1015.6 0.0
25/04:30am 7.2 5.2 6.3 94 0.4 S 6 7 3 4 1015.6 1015.2 0.0
25/04:00am 7.5 5.5 6.3 92 0.6 S 6 7 3 4 1015.7 1015.3 0.0
25/03:30am 7.7 5.7 6.2 90 0.7 S 6 7 3 4 1015.6 1015.2 0.0
25/03:00am 8.4 6.6 7.0 91 0.7 SSW 6 7 3 4 1015.5 1015.1 0.0
25/02:30am 8.9 8.3 7.4 90 0.7 CALM 0 0 0 0 1015.3 1014.9 0.0
25/02:00am 9.3 8.7 7.6 89 0.8 CALM 0 0 0 0 1015.5 1015.1 0.0
25/01:30am 10.1 9.0 8.4 89 0.8 S 4 6 2 3 1015.5 1015.1 0.0
25/01:00am 11.0 10.3 8.6 85 1.2 SSW 2 7 1 4 1015.6 1015.2 0.0
25/12:30am 12.1 11.7 9.7 85 1.2 SSW 2 7 1 4 1015.8 1015.4 0.0
25/12:00am 11.8 11.7 9.4 85 1.2 CALM 0 0 0 0 1015.7 1015.3 0.0
 
Date/Time
EDT
Temp
°C
App
Temp
°C
Dew
Point
Rel
Hum
%
Delta-T
°C
Wind Press
QNH
hPa
Press
MSL
hPa
Rain
since 9 am
mm
Dir
 
Spd
km/h
Gust
km/h
Spd
kts
Gust
kts
24/11:30pm 12.6 12.6 9.8 83 1.5 CALM 0 0 0 0 1015.5 1015.1 0.0
24/11:00pm 14.6 13.8 11.0 79 1.9 SSW 6 7 3 4 1015.2 1014.8 0.0
24/10:30pm 14.6 14.6 11.2 80 1.8 S 2 6 1 3 1015.0 1014.6 0.0
24/10:00pm 15.6 14.9 11.4 76 2.3 S 6 7 3 4 1015.0 1014.6 0.0
24/09:30pm 17.0 17.5 11.7 71 2.9 CALM 0 2 0 1 1014.8 1014.4 0.0
24/09:00pm 18.9 19.4 11.7 63 4.0 CALM 0 0 0 0 1014.1 1013.8 0.0
24/08:30pm 20.4 20.6 10.5 53 5.5 CALM 0 0 0 0 1013.8 1013.5 0.0
24/08:00pm 21.6 21.8 10.7 50 6.1 CALM 0 0 0 0 1013.2 1012.8 0.0
24/07:30pm 24.5 23.2 9.3 38 8.4 SSW 6 7 3 4 1012.7 1012.3 0.0
24/07:00pm 27.3 24.2 7.2 28 10.9 SW 13 17 7 9 1012.4 1012.0 0.0
24/06:30pm 28.5 24.9 8.2 28 11.2 SW 17 22 9 12 1012.0 1011.6 0.0
24/06:00pm 29.9 24.0 7.7 25 12.3 SW 28 39 15 21 1011.3 1010.9 0.0
24/05:30pm 31.3 27.3 4.9 19 14.1 W 15 24 8 13 1010.9 1010.5 0.0
24/05:00pm 32.0 28.0 4.7 18 14.6 W 15 24 8 13 1010.8 1010.4 0.0
24/04:30pm 32.5 27.5 3.5 16 15.2 WNW 19 30 10 16 1010.8 1010.4 0.0
24/04:00pm 32.8 28.2 5.4 18 14.8 NW 19 30 10 16 1010.8 1010.4 0.0
24/03:30pm 33.8 29.5 7.0 19 14.9 WNW 19 28 10 15 1011.2 1010.8 0.0
24/03:00pm 33.4 28.2 7.4 20 14.6 NNW 24 41 13 22 1011.8 1011.5 0.0
24/02:30pm 33.1 29.5 9.8 24 13.5 NW 19 28 10 15 1012.5 1012.1 0.0
24/02:00pm 32.3 27.6 9.2 24 13.2 NNW 24 37 13 20 1012.9 1012.5 0.0
24/01:30pm 31.3 27.4 9.5 26 12.5 NNW 20 30 11 16 1013.4 1013.0 0.0
24/01:00pm 31.5 27.4 10.2 27 12.4 NNW 22 32 12 17 1013.7 1013.4 0.0
24/12:30pm 30.5 25.5 9.4 27 12.0 NNW 26 41 14 22 1014.2 1013.9 0.0
24/12:00pm 30.1 25.4 10.6 30 11.3 N 26 41 14 22 1014.8 1014.4 0.0
24/11:30am 29.0 24.0 11.1 33 10.4 N 28 41 15 22 1015.2 1014.8 0.0
24/11:00am 28.3 23.8 11.4 35 9.8 N 26 35 14 19 1015.7 1015.3 0.0
24/10:30am 27.1 23.2 12.0 39 8.8 N 24 35 13 19 1016.0 1015.7 0.0
24/10:00am 25.9 21.8 11.6 40 8.3 N 24 39 13 21 1016.4 1016.1 0.0
24/09:30am 24.5 21.6 12.8 48 6.9 N 20 32 11 17 1016.8 1016.5 0.0
24/09:00am 22.6 19.2 13.7 57 5.3 NNE 24 33 13 18 1016.8 1016.5 2.8
24/08:30am 21.9 21.2 14.3 62 4.5 N 11 19 6 10 1017.2 1016.9 2.8
24/08:00am 19.2 19.5 13.4 69 3.4 N 4 11 2 6 1017.3 1017.0 2.8
24/07:30am 16.7 18.0 14.0 84 1.6 CALM 0 0 0 0 1017.6 1017.2 2.8
24/07:00am 13.5 13.6 11.6 88 1.0 SSE 2 6 1 3 1017.2 1016.9 2.8
24/06:30am 13.6 12.9 11.3 86 1.2 S 6 9 3 5 1017.0 1016.7 2.8
24/06:00am 15.0 15.0 12.3 84 1.5 SSE 4 7 2 4 1017.0 1016.7 2.8
24/05:30am 13.6 13.8 12.0 90 0.9 W 2 9 1 5 1017.3 1017.0 2.8
24/05:00am 13.6 14.2 12.0 90 0.9 CALM 0 0 0 0 1017.5 1017.1 2.8
24/04:30am 12.9 12.2 11.3 90 0.9 SW 6 11 3 6 1017.7 1017.3 2.8
24/04:00am 13.1 11.5 11.5 90 0.9 WSW 11 11 6 6 1017.1 1016.8 2.8
24/03:30am 13.3 12.6 11.5 89 1.0 SSW 6 9 3 5 1016.8 1016.5 2.8
24/03:00am 13.7 12.8 11.4 86 1.2 SW 7 11 4 6 1017.0 1016.7 2.8
24/02:30am 14.5 14.7 11.8 84 1.5 SW 2 7 1 4 1017.0 1016.7 2.8
24/02:00am 15.4 15.9 11.6 78 2.1 CALM 0 6 0 3 1017.5 1017.1 2.8
24/01:30am 16.5 16.0 12.1 75 2.5 NW 6 7 3 4 1017.7 1017.3 2.8
24/01:00am 19.1 15.8 11.7 62 4.1 E 20 30 11 16 1017.7 1017.3 2.8
24/12:30am 17.0 15.5 13.1 78 2.2 E 13 19 7 10 1018.6 1018.3 2.6
24/12:00am 18.1 17.8 13.4 74 2.7 SSE 7 19 4 10 1018.5 1018.2 2.4
 
Date/Time
EDT
Temp
°C
App
Temp
°C
Dew
Point
Rel
Hum
%
Delta-T
°C
Wind Press
QNH
hPa
Press
MSL
hPa
Rain
since 9 am
mm
Dir
 
Spd
km/h
Gust
km/h
Spd
kts
Gust
kts
23/11:30pm 19.2 15.6 12.0 63 4.1 ENE 22 32 12 17 1017.5 1017.1 1.0
23/11:00pm 20.7 19.2 10.5 52 5.6 SSW 9 13 5 7 1018.0 1017.6 0.0
23/10:30pm 21.4 19.3 9.9 48 6.3 NE 11 17 6 9 1017.2 1016.9 0.0
23/10:00pm 18.9 18.7 10.5 58 4.6 SSW 2 9 1 5 1017.0 1016.7 0.0
23/09:30pm 19.3 18.3 10.3 56 4.9 WSW 6 9 3 5 1016.9 1016.6 0.0
23/09:00pm 22.6 20.2 10.1 45 6.9 E 13 22 7 12 1016.7 1016.4 0.0
23/08:30pm 22.9 19.2 10.3 45 7.0 E 20 33 11 18 1016.3 1016.0 0.0
23/08:00pm 19.5 18.8 11.3 59 4.6 WSW 6 7 3 4 1015.8 1015.4 0.0
23/07:30pm 23.4 22.2 9.4 41 7.7 N 6 7 3 4 1015.3 1014.9 0.0
23/07:00pm 26.2 23.8 8.7 33 9.7 NE 11 13 6 7 1015.1 1014.7 0.0
23/06:30pm 29.4 28.0 7.3 25 12.1 N 4 7 2 4 1015.0 1014.6 0.0
23/06:00pm 30.5 29.1 5.7 21 13.3 W 2 7 1 4 1015.0 1014.6 0.0
23/05:30pm 30.5 29.0 7.0 23 12.9 SSE 4 7 2 4 1015.1 1014.7 0.0
23/05:00pm 30.4 28.3 8.2 25 12.4 NNE 9 15 5 8 1015.1 1014.7 0.0
23/04:30pm 31.4 29.3 8.4 24 13.0 W 9 15 5 8 1015.3 1014.9 0.0
23/04:00pm 30.4 28.4 7.0 23 12.8 E 7 15 4 8 1015.4 1015.0 0.0
23/03:30pm 30.9 28.9 8.6 25 12.6 NW 9 13 5 7 1015.7 1015.3 0.0
23/03:00pm 31.3 29.0 10.6 28 12.1 WNW 13 22 7 12 1015.9 1015.6 0.0
23/02:30pm 30.1 27.1 7.9 25 12.3 W 13 17 7 9 1016.4 1016.1 0.0
23/02:00pm 30.1 27.7 8.5 26 12.1 N 11 20 6 11 1016.5 1016.2 0.0
23/01:30pm 30.3 27.5 8.7 26 12.2 NW 13 20 7 11 1017.0 1016.7 0.0
23/01:00pm 30.1 27.5 7.9 25 12.3 NW 11 20 6 11 1017.3 1017.0 0.0
23/12:30pm 29.3 27.2 9.9 30 11.1 WNW 11 20 6 11 1017.7 1017.3 0.0
23/12:00pm 28.5 26.5 8.7 29 11.0 WSW 9 15 5 8 1018.1 1017.7 0.0
23/11:30am 27.3 25.3 10.1 34 9.8 W 11 17 6 9 1018.6 1018.3 0.0
23/11:00am 26.6 24.4 9.5 34 9.6 NW 11 17 6 9 1018.8 1018.5 0.0
23/10:30am 26.1 23.2 11.1 39 8.6 N 17 22 9 12 1019.4 1019.1 0.0
23/10:00am 26.1 23.7 12.5 42 8.0 NNW 17 24 9 13 1019.4 1019.1 0.0
23/09:30am 23.7 22.8 13.6 53 6.0 N 11 13 6 7 1019.4 1019.1 0.0
23/09:00am 20.4 20.2 14.7 70 3.4 NW 9 13 5 7 1019.8 1019.5 0.2
23/08:30am 17.9 18.3 15.3 85 1.5 E 7 9 4 5 1019.5 1019.2 0.2
23/08:00am 15.1 15.5 13.8 92 0.7 WNW 4 11 2 6 1019.6 1019.3 0.2
23/07:30am 14.0 13.6 13.1 94 0.5 S 7 11 4 6 1019.3 1019.0 0.0

Other Formats:

Comma delimited format used in spreadsheet applications
http://www.bom.gov.au/fwo/IDN60801/IDN60801.94712.axf

JavaScript Object Notation format (JSON) in row-major order
http://www.bom.gov.au/fwo/IDN60801/IDN60801.94712.json